^^
Datos históricos de la estación: Murcia-Puente Tocinos
Diario Informe para Junio 21, 2021 Unidades:  Ambas    Ingés   Métrico
Diario Semanal Mensual Anual
  Máxima: Mínima: Promedio:
Temperatura: 87.1 °F /  30.6 °C 70.3 °F /  21.3 °C 79 °F /  26.1 °C
Punto de rocio: 59.2 °F /  15.1 °C 55 °F /  12.8 °C 57 °F /  13.9 °C
Humedad: 67% 35% 48%
Velocidad viento: 12.5mph /  20.1km/h - 5.3mph /  8.6km/h
Racha viento: 22.3mph /  35.9km/h - -
Viento- - Sur
Presión: 29.8 in /  1009.9 hPa 29.7 in /  1006.5 hPa -
Precipitación: 0 in /  0.0 mm    
 
 
Tabla de datos para Junio 21, 2021
Hora Temperatura Punto de rocio Presión Viento Velocidad viento Racha viento Humedad Intensidad lluvia(por hora) Nubes
00:04 75.6 °F /  24.2 °C 56.7 °F /  13.7 °C 29.8in /  1009.3hPa Sur 4.7mph /  7.6km/h 7mph /  11.3km/h 52% 0in /  0.0mm
00:09 75.6 °F /  24.2 °C 57 °F /  13.9 °C 29.8in /  1009.3hPa SSE 4.5mph /  7.2km/h 7mph /  11.3km/h 52.9% 0in /  0.0mm
00:14 75.4 °F /  24.1 °C 57.2 °F /  14 °C 29.8in /  1009.3hPa SE 4.3mph /  6.9km/h 6mph /  9.7km/h 53.3% 0in /  0.0mm
00:19 75.2 °F /  24 °C 57.4 °F /  14.1 °C 29.8in /  1009.3hPa SSE 4.3mph /  6.9km/h 7.4mph /  11.9km/h 54% 0in /  0.0mm
00:24 74.8 °F /  23.8 °C 57.7 °F /  14.3 °C 29.8in /  1009.3hPa SE 4.3mph /  6.9km/h 6.9mph /  11.1km/h 55% 0in /  0.0mm
00:29 74.7 °F /  23.7 °C 57.4 °F /  14.1 °C 29.8in /  1009.3hPa SSE 4.5mph /  7.3km/h 7.6mph /  12.2km/h 55% 0in /  0.0mm
00:34 74.5 °F /  23.6 °C 57.6 °F /  14.2 °C 29.8in /  1009.3hPa Sur 4.7mph /  7.6km/h 8.1mph /  13km/h 55.6% 0in /  0.0mm
00:39 74.1 °F /  23.4 °C 57.4 °F /  14.1 °C 29.8in /  1009.3hPa Sur 4.7mph /  7.6km/h 7mph /  11.3km/h 56% 0in /  0.0mm
00:44 74.1 °F /  23.4 °C 57.4 °F /  14.1 °C 29.8in /  1009.2hPa SSE 4.7mph /  7.6km/h 6.9mph /  11.1km/h 56% 0in /  0.0mm
00:49 73.9 °F /  23.3 °C 57.7 °F /  14.3 °C 29.8in /  1009.2hPa SSE 4.5mph /  7.2km/h 6.9mph /  11.1km/h 57% 0in /  0.0mm
00:54 73.9 °F /  23.3 °C 57.7 °F /  14.3 °C 29.8in /  1009.2hPa SSE 4.3mph /  6.9km/h 7mph /  11.3km/h 57% 0in /  0.0mm
00:59 73.9 °F /  23.3 °C 57.7 °F /  14.3 °C 29.8in /  1009.2hPa Sur 4.3mph /  6.9km/h 6.9mph /  11.1km/h 57% 0in /  0.0mm
01:04 73.9 °F /  23.3 °C 57.7 °F /  14.3 °C 29.8in /  1009.2hPa SSE 4.3mph /  6.9km/h 7.4mph /  11.9km/h 56.8% 0in /  0.0mm
01:09 73.9 °F /  23.3 °C 57.7 °F /  14.3 °C 29.8in /  1009.2hPa SE 4.5mph /  7.3km/h 8.1mph /  13km/h 57% 0in /  0.0mm
01:14 73.9 °F /  23.3 °C 58.1 °F /  14.5 °C 29.8in /  1009.0hPa SE 4.7mph /  7.6km/h 6.9mph /  11.1km/h 57.7% 0in /  0.0mm
01:19 73.8 °F /  23.2 °C 57.9 °F /  14.4 °C 29.8in /  1009.0hPa Sur 4.5mph /  7.2km/h 7mph /  11.3km/h 57.8% 0in /  0.0mm
01:24 73.8 °F /  23.2 °C 57.7 °F /  14.3 °C 29.8in /  1009.1hPa OSO 4.3mph /  6.9km/h 5.2mph /  8.4km/h 57.3% 0in /  0.0mm
01:29 73.8 °F /  23.2 °C 57.9 °F /  14.4 °C 29.8in /  1009.1hPa Oeste 3.6mph /  5.8km/h 4.6mph /  7.4km/h 57.9% 0in /  0.0mm
01:34 73.6 °F /  23.1 °C 57.9 °F /  14.4 °C 29.8in /  1009.1hPa ONO 3.1mph /  5km/h 4.6mph /  7.4km/h 58% 0in /  0.0mm
01:39 73.6 °F /  23.1 °C 57.9 °F /  14.4 °C 29.8in /  1009.1hPa OSO 2.4mph /  3.9km/h 5.9mph /  9.5km/h 58% 0in /  0.0mm
01:44 73.2 °F /  22.9 °C 57.9 °F /  14.4 °C 29.8in /  1008.9hPa SO 2mph /  3.2km/h 6mph /  9.7km/h 58.7% 0in /  0.0mm
01:49 73.2 °F /  22.9 °C 57.9 °F /  14.4 °C 29.8in /  1008.9hPa SO 2.5mph /  4.1km/h 5mph /  8km/h 59% 0in /  0.0mm
01:54 73.2 °F /  22.9 °C 57.9 °F /  14.4 °C 29.8in /  1008.9hPa SO 2.9mph /  4.7km/h 4.6mph /  7.4km/h 58.8% 0in /  0.0mm
01:59 73 °F /  22.8 °C 57.6 °F /  14.2 °C 29.8in /  1008.8hPa SO 2.5mph /  4.1km/h 5mph /  8km/h 58.2% 0in /  0.0mm
02:04 73 °F /  22.8 °C 57.9 °F /  14.4 °C 29.8in /  1008.8hPa OSO 2.4mph /  3.9km/h 5mph /  8km/h 59% 0in /  0.0mm
02:09 73 °F /  22.8 °C 57.9 °F /  14.4 °C 29.8in /  1008.9hPa OSO 2.2mph /  3.5km/h 4mph /  6.4km/h 59.1% 0in /  0.0mm
02:14 73 °F /  22.8 °C 58.3 °F /  14.6 °C 29.8in /  1008.9hPa OSO 2mph /  3.2km/h 2.4mph /  3.9km/h 60% 0in /  0.0mm
02:19 72.9 °F /  22.7 °C 58.6 °F /  14.8 °C 29.8in /  1008.9hPa OSO 1.6mph /  2.6km/h 3.5mph /  5.6km/h 61.1% 0in /  0.0mm
02:24 72.7 °F /  22.6 °C 59 °F /  15 °C 29.8in /  1008.9hPa SO 1.4mph /  2.2km/h 4.7mph /  7.6km/h 62% 0in /  0.0mm
02:29 72.3 °F /  22.4 °C 57.7 °F /  14.3 °C 29.8in /  1008.9hPa Este 2mph /  3.2km/h 5mph /  8km/h 60.1% 0in /  0.0mm
02:34 72 °F /  22.2 °C 56.8 °F /  13.8 °C 29.8in /  1008.9hPa Este 2.4mph /  3.9km/h 5mph /  8km/h 59% 0in /  0.0mm
02:39 71.8 °F /  22.1 °C 56.8 °F /  13.8 °C 29.8in /  1008.9hPa Este 2.7mph /  4.4km/h 5mph /  8km/h 59.6% 0in /  0.0mm
02:44 71.6 °F /  22 °C 57.4 °F /  14.1 °C 29.8in /  1008.9hPa SE 2.9mph /  4.6km/h 5mph /  8km/h 60.9% 0in /  0.0mm
02:49 71.4 °F /  21.9 °C 57.7 °F /  14.3 °C 29.8in /  1008.9hPa SSE 2.6mph /  4.2km/h 5.2mph /  8.4km/h 62% 0in /  0.0mm
02:54 71.6 °F /  22 °C 58.3 °F /  14.6 °C 29.8in /  1008.9hPa SSO 2.4mph /  3.9km/h 5mph /  8km/h 63% 0in /  0.0mm
02:59 71.8 °F /  22.1 °C 58.5 °F /  14.7 °C 29.8in /  1008.8hPa SSO 2.7mph /  4.4km/h 4.6mph /  7.4km/h 63% 0in /  0.0mm
03:04 71.8 °F /  22.1 °C 58.5 °F /  14.7 °C 29.8in /  1008.8hPa Sur 2.9mph /  4.7km/h 5mph /  8km/h 63% 0in /  0.0mm
03:09 72 °F /  22.2 °C 58.6 °F /  14.8 °C 29.8in /  1008.8hPa SSE 2.5mph /  4.1km/h 5mph /  8km/h 63% 0in /  0.0mm
03:14 72 °F /  22.2 °C 58.6 °F /  14.8 °C 29.8in /  1008.8hPa ESE 2.4mph /  3.9km/h 5mph /  8km/h 63% 0in /  0.0mm
03:19 71.8 °F /  22.1 °C 58.8 °F /  14.9 °C 29.8in /  1008.8hPa ESE 2.4mph /  3.9km/h 5mph /  8km/h 63.8% 0in /  0.0mm
03:24 71.4 °F /  21.9 °C 58.6 °F /  14.8 °C 29.8in /  1008.8hPa ESE 2.4mph /  3.9km/h 3.6mph /  5.8km/h 64% 0in /  0.0mm
03:29 71.2 °F /  21.8 °C 58.6 °F /  14.8 °C 29.8in /  1008.7hPa SSE 2.2mph /  3.5km/h 4.6mph /  7.4km/h 64.2% 0in /  0.0mm
03:34 71.1 °F /  21.7 °C 58.8 °F /  14.9 °C 29.8in /  1008.7hPa SE 2mph /  3.2km/h 5mph /  8km/h 65% 0in /  0.0mm
03:39 71.1 °F /  21.7 °C 58.6 °F /  14.8 °C 29.8in /  1008.7hPa ESE 2mph /  3.2km/h 4mph /  6.4km/h 65% 0in /  0.0mm
03:44 70.7 °F /  21.5 °C 58.5 °F /  14.7 °C 29.8in /  1008.7hPa SE 2mph /  3.2km/h 5mph /  8km/h 65% 0in /  0.0mm
03:49 70.5 °F /  21.4 °C 58.5 °F /  14.7 °C 29.8in /  1008.7hPa SE 2.2mph /  3.6km/h 5mph /  8km/h 65.4% 0in /  0.0mm
03:54 70.3 °F /  21.3 °C 58.5 °F /  14.7 °C 29.8in /  1008.7hPa SSE 2.4mph /  3.9km/h 3mph /  4.8km/h 66% 0in /  0.0mm
03:59 70.3 °F /  21.3 °C 58.5 °F /  14.7 °C 29.8in /  1008.7hPa SE 1.7mph /  2.8km/h 3mph /  4.8km/h 66% 0in /  0.0mm
04:04 70.3 °F /  21.3 °C 58.5 °F /  14.7 °C 29.8in /  1008.7hPa Sur 1.4mph /  2.2km/h 3.5mph /  5.6km/h 66% 0in /  0.0mm
04:09 70.3 °F /  21.3 °C 58.5 °F /  14.7 °C 29.8in /  1008.7hPa ESE 1.6mph /  2.6km/h 3.5mph /  5.6km/h 66.1% 0in /  0.0mm
04:14 70.3 °F /  21.3 °C 58.8 °F /  14.9 °C 29.8in /  1008.7hPa SE 1.8mph /  2.9km/h 4mph /  6.4km/h 66.9% 0in /  0.0mm
04:19 70.3 °F /  21.3 °C 58.5 °F /  14.7 °C 29.8in /  1008.7hPa SE 2.2mph /  3.5km/h 4.6mph /  7.4km/h 66.1% 0in /  0.0mm
04:24 70.3 °F /  21.3 °C 58.8 °F /  14.9 °C 29.8in /  1008.7hPa Sur 2.4mph /  3.9km/h 5mph /  8km/h 67% 0in /  0.0mm
04:29 70.3 °F /  21.3 °C 58.6 °F /  14.8 °C 29.8in /  1008.6hPa SO 2.2mph /  3.5km/h 4.6mph /  7.4km/h 66.5% 0in /  0.0mm
04:34 70.3 °F /  21.3 °C 58.5 °F /  14.7 °C 29.8in /  1008.6hPa SSO 2mph /  3.2km/h 5mph /  8km/h 66% 0in /  0.0mm
04:39 70.3 °F /  21.3 °C 58.3 °F /  14.6 °C 29.8in /  1008.7hPa SSO 2.6mph /  4.2km/h 5mph /  8km/h 65.6% 0in /  0.0mm
04:44 70.3 °F /  21.3 °C 58.1 °F /  14.5 °C 29.8in /  1008.7hPa SSO 3.1mph /  5km/h 5.4mph /  8.7km/h 65% 0in /  0.0mm
04:49 70.5 °F /  21.4 °C 57.7 °F /  14.3 °C 29.8in /  1008.7hPa SSO 3.4mph /  5.5km/h 6mph /  9.7km/h 64% 0in /  0.0mm
04:54 70.5 °F /  21.4 °C 57.7 °F /  14.3 °C 29.8in /  1008.7hPa SSO 3.6mph /  5.8km/h 6mph /  9.7km/h 64% 0in /  0.0mm
04:59 70.5 °F /  21.4 °C 57.7 °F /  14.3 °C 29.8in /  1008.6hPa SSO 3.3mph /  5.3km/h 5mph /  8km/h 64% 0in /  0.0mm
05:04 70.5 °F /  21.4 °C 57.7 °F /  14.3 °C 29.8in /  1008.6hPa SSO 3.1mph /  5km/h 5mph /  8km/h 64% 0in /  0.0mm
05:09 70.5 °F /  21.4 °C 57.4 °F /  14.1 °C 29.8in /  1008.6hPa SO 3mph /  4.8km/h 5.4mph /  8.7km/h 63.2% 0in /  0.0mm
05:14 70.5 °F /  21.4 °C 57.2 °F /  14 °C 29.8in /  1008.6hPa SSO 2.9mph /  4.7km/h 6mph /  9.7km/h 62.4% 0in /  0.0mm
05:19 70.7 °F /  21.5 °C 57 °F /  13.9 °C 29.8in /  1008.6hPa SSO 2.9mph /  4.6km/h 6mph /  9.7km/h 62% 0in /  0.0mm
05:24 70.9 °F /  21.6 °C 57 °F /  13.9 °C 29.8in /  1008.8hPa SSO 2.9mph /  4.7km/h 5.9mph /  9.5km/h 61.5% 0in /  0.0mm
05:29 71.1 °F /  21.7 °C 56.8 °F /  13.8 °C 29.8in /  1008.8hPa SO 2.9mph /  4.6km/h 6mph /  9.7km/h 61% 0in /  0.0mm
05:34 71.1 °F /  21.7 °C 56.8 °F /  13.8 °C 29.8in /  1008.8hPa SO 2.9mph /  4.7km/h 6mph /  9.7km/h 61% 0in /  0.0mm
05:39 71.1 °F /  21.7 °C 56.8 °F /  13.8 °C 29.8in /  1008.8hPa SO 2.9mph /  4.6km/h 6mph /  9.7km/h 61% 0in /  0.0mm
05:44 70.9 °F /  21.6 °C 56.7 °F /  13.7 °C 29.8in /  1008.8hPa SO 2.9mph /  4.7km/h 6.9mph /  11.1km/h 60.6% 0in /  0.0mm
05:49 71.1 °F /  21.7 °C 56.5 °F /  13.6 °C 29.8in /  1008.8hPa SSO 3.5mph /  5.7km/h 7mph /  11.3km/h 60% 0in /  0.0mm
05:54 71.1 °F /  21.7 °C 56.5 °F /  13.6 °C 29.8in /  1008.9hPa SSO 4mph /  6.5km/h 7.4mph /  11.9km/h 60% 0in /  0.0mm
05:59 71.2 °F /  21.8 °C 56.3 °F /  13.5 °C 29.8in /  1008.9hPa SSO 4.2mph /  6.8km/h 7mph /  11.3km/h 59.2% 0in /  0.0mm
06:04 71.2 °F /  21.8 °C 56.1 °F /  13.4 °C 29.8in /  1008.9hPa SSO 4.3mph /  6.9km/h 7mph /  11.3km/h 59% 0in /  0.0mm
06:09 71.2 °F /  21.8 °C 56.5 °F /  13.6 °C 29.8in /  1009.0hPa Sur 4.1mph /  6.6km/h 6mph /  9.7km/h 59.6% 0in /  0.0mm
06:14 71.2 °F /  21.8 °C 56.5 °F /  13.6 °C 29.8in /  1009.0hPa Sur 4mph /  6.5km/h 5.9mph /  9.5km/h 60% 0in /  0.0mm
06:19 71.1 °F /  21.7 °C 56.5 °F /  13.6 °C 29.8in /  1009.0hPa SSO 3.5mph /  5.6km/h 5.2mph /  8.4km/h 60% 0in /  0.0mm
06:24 70.9 °F /  21.6 °C 56.7 °F /  13.7 °C 29.8in /  1009.1hPa Sur 3.1mph /  5km/h 5.9mph /  9.5km/h 60.7% 0in /  0.0mm
06:29 70.9 °F /  21.6 °C 56.8 °F /  13.8 °C 29.8in /  1009.1hPa Sur 3.1mph /  5km/h 6mph /  9.7km/h 61% 0in /  0.0mm
06:34 70.9 °F /  21.6 °C 56.7 °F /  13.7 °C 29.8in /  1009.1hPa SSO 3.1mph /  5km/h 6mph /  9.7km/h 60.9% 0in /  0.0mm
06:39 70.9 °F /  21.6 °C 56.1 °F /  13.4 °C 29.8in /  1009.1hPa SSO 3.4mph /  5.5km/h 6.9mph /  11.1km/h 60% 0in /  0.0mm
06:44 70.7 °F /  21.5 °C 56.1 °F /  13.4 °C 29.8in /  1009.1hPa Sur 3.6mph /  5.8km/h 7mph /  11.3km/h 60% 0in /  0.0mm
06:49 70.7 °F /  21.5 °C 56.1 °F /  13.4 °C 29.8in /  1009.1hPa Sur 3.9mph /  6.2km/h 6.2mph /  10km/h 60% 0in /  0.0mm
06:54 70.9 °F /  21.6 °C 56.3 °F /  13.5 °C 29.8in /  1009.1hPa Sur 4mph /  6.5km/h 6mph /  9.7km/h 60% 0in /  0.0mm
06:59 70.9 °F /  21.6 °C 56.3 °F /  13.5 °C 29.8in /  1009.1hPa Sur 3.8mph /  6.1km/h 6mph /  9.7km/h 60% 0in /  0.0mm
07:04 70.9 °F /  21.6 °C 56.1 °F /  13.4 °C 29.8in /  1009.1hPa SSE 3.6mph /  5.8km/h 5.2mph /  8.4km/h 59.7% 0in /  0.0mm
07:09 71.1 °F /  21.7 °C 55.9 °F /  13.3 °C 29.8in /  1009.2hPa SSE 3.2mph /  5.1km/h 5mph /  8km/h 59.1% 0in /  0.0mm
07:14 71.1 °F /  21.7 °C 56.1 °F /  13.4 °C 29.8in /  1009.2hPa SSE 2.9mph /  4.6km/h 5mph /  8km/h 59% 0in /  0.0mm
07:19 71.2 °F /  21.8 °C 56.3 °F /  13.5 °C 29.8in /  1009.2hPa SSE 2.6mph /  4.2km/h 5mph /  8km/h 59.3% 0in /  0.0mm
07:24 71.2 °F /  21.8 °C 56.3 °F /  13.5 °C 29.8in /  1009.3hPa Sur 2.4mph /  3.9km/h 5mph /  8km/h 59.2% 0in /  0.0mm
07:29 71.4 °F /  21.9 °C 56.3 °F /  13.5 °C 29.8in /  1009.3hPa SSO 2.4mph /  3.9km/h 5.2mph /  8.4km/h 59% 0in /  0.0mm
07:34 71.4 °F /  21.9 °C 56.1 °F /  13.4 °C 29.8in /  1009.3hPa Sur 2.4mph /  3.9km/h 5.2mph /  8.4km/h 58.5% 0in /  0.0mm
07:39 71.4 °F /  21.9 °C 56.3 °F /  13.5 °C 29.8in /  1009.4hPa Sur 2.8mph /  4.5km/h 6.2mph /  10km/h 58.9% 0in /  0.0mm
07:44 71.6 °F /  22 °C 55.9 °F /  13.3 °C 29.8in /  1009.4hPa Sur 3.1mph /  5km/h 6.9mph /  11.1km/h 58% 0in /  0.0mm
07:49 71.8 °F /  22.1 °C 55.8 °F /  13.2 °C 29.8in /  1009.4hPa SSO 3.8mph /  6.1km/h 8.7mph /  14km/h 57.1% 0in /  0.0mm
07:54 72 °F /  22.2 °C 55.6 °F /  13.1 °C 29.8in /  1009.6hPa Sur 4.3mph /  6.9km/h 9.2mph /  14.8km/h 56.5% 0in /  0.0mm
07:59 72 °F /  22.2 °C 55.4 °F /  13 °C 29.8in /  1009.6hPa Sur 5mph /  8km/h 9mph /  14.5km/h 56% 0in /  0.0mm
08:04 72.1 °F /  22.3 °C 55.6 °F /  13.1 °C 29.8in /  1009.6hPa Sur 5.4mph /  8.7km/h 8mph /  12.9km/h 56% 0in /  0.0mm
08:09 72.3 °F /  22.4 °C 55.8 °F /  13.2 °C 29.8in /  1009.7hPa SSO 5.3mph /  8.5km/h 10mph /  16.1km/h 56% 0in /  0.0mm
08:14 72.5 °F /  22.5 °C 55.9 °F /  13.3 °C 29.8in /  1009.7hPa SSO 5.2mph /  8.4km/h 10.4mph /  16.7km/h 55.9% 0in /  0.0mm
08:19 72.9 °F /  22.7 °C 56.1 °F /  13.4 °C 29.8in /  1009.7hPa SO 4.6mph /  7.4km/h 10mph /  16.1km/h 55.8% 0in /  0.0mm
08:24 73 °F /  22.8 °C 55.8 °F /  13.2 °C 29.8in /  1009.8hPa SSO 4.3mph /  6.9km/h 8.5mph /  13.7km/h 54.9% 0in /  0.0mm
08:29 73.2 °F /  22.9 °C 55.6 °F /  13.1 °C 29.8in /  1009.8hPa SSO 4.5mph /  7.3km/h 9mph /  14.5km/h 54.1% 0in /  0.0mm
08:34 73.4 °F /  23 °C 55.8 °F /  13.2 °C 29.8in /  1009.8hPa SSO 4.7mph /  7.6km/h 10.4mph /  16.7km/h 54% 0in /  0.0mm
08:39 73.8 °F /  23.2 °C 55.9 °F /  13.3 °C 29.8in /  1009.8hPa SO 5.1mph /  8.2km/h 10.4mph /  16.7km/h 53.9% 0in /  0.0mm
08:44 73.9 °F /  23.3 °C 55.8 °F /  13.2 °C 29.8in /  1009.7hPa SSO 5.4mph /  8.7km/h 10.4mph /  16.7km/h 53% 0in /  0.0mm
08:49 73.9 °F /  23.3 °C 55.8 °F /  13.2 °C 29.8in /  1009.7hPa OSO 5.3mph /  8.5km/h 10mph /  16.1km/h 53% 0in /  0.0mm
08:54 74.1 °F /  23.4 °C 55.9 °F /  13.3 °C 29.8in /  1009.7hPa SSO 5.2mph /  8.4km/h 8.1mph /  13km/h 53% 0in /  0.0mm
08:59 74.5 °F /  23.6 °C 56.1 °F /  13.4 °C 29.8in /  1009.7hPa SO 5.2mph /  8.4km/h 8.5mph /  13.7km/h 53% 0in /  0.0mm
09:04 74.7 °F /  23.7 °C 56.5 °F /  13.6 °C 29.8in /  1009.7hPa SO 5.2mph /  8.4km/h 9mph /  14.5km/h 53% 0in /  0.0mm
09:09 74.8 °F /  23.8 °C 56.7 °F /  13.7 °C 29.8in /  1009.8hPa SO 4.9mph /  7.9km/h 8mph /  12.9km/h 53% 0in /  0.0mm
09:14 75 °F /  23.9 °C 56.7 °F /  13.7 °C 29.8in /  1009.8hPa SO 4.7mph /  7.6km/h 8.1mph /  13km/h 52.9% 0in /  0.0mm
09:19 75.4 °F /  24.1 °C 56.8 °F /  13.8 °C 29.8in /  1009.8hPa SO 4.7mph /  7.6km/h 8.1mph /  13km/h 52.6% 0in /  0.0mm
09:24 75.7 °F /  24.3 °C 56.8 °F /  13.8 °C 29.8in /  1009.8hPa OSO 4.7mph /  7.6km/h 8.5mph /  13.7km/h 52% 0in /  0.0mm
09:29 75.9 °F /  24.4 °C 57 °F /  13.9 °C 29.8in /  1009.8hPa OSO 4.3mph /  6.9km/h 9mph /  14.5km/h 52% 0in /  0.0mm
09:34 76.3 °F /  24.6 °C 56.8 °F /  13.8 °C 29.8in /  1009.8hPa OSO 4mph /  6.5km/h 13mph /  20.9km/h 51.1% 0in /  0.0mm
09:39 76.6 °F /  24.8 °C 56.5 °F /  13.6 °C 29.8in /  1009.9hPa Oeste 4.9mph /  7.9km/h 13mph /  20.9km/h 49.9% 0in /  0.0mm
09:44 76.8 °F /  24.9 °C 56.1 °F /  13.4 °C 29.8in /  1009.9hPa Oeste 5.4mph /  8.7km/h 14mph /  22.5km/h 48.7% 0in /  0.0mm
09:49 77.2 °F /  25.1 °C 55.9 °F /  13.3 °C 29.8in /  1009.9hPa Oeste 6.7mph /  10.8km/h 14mph /  22.5km/h 48% 0in /  0.0mm
09:54 77.2 °F /  25.1 °C 56.1 °F /  13.4 °C 29.8in /  1009.9hPa OSO 7.4mph /  11.9km/h 13mph /  20.9km/h 48.1% 0in /  0.0mm
09:59 77.4 °F /  25.2 °C 56.1 °F /  13.4 °C 29.8in /  1009.9hPa Oeste 7.8mph /  12.6km/h 15mph /  24.1km/h 48% 0in /  0.0mm
10:04 77.4 °F /  25.2 °C 55.9 °F /  13.3 °C 29.8in /  1009.9hPa ONO 8.1mph /  13km/h 15mph /  24.1km/h 47.5% 0in /  0.0mm
10:09 77.5 °F /  25.3 °C 55.8 °F /  13.2 °C 29.8in /  1009.9hPa Oeste 8.1mph /  13km/h 13mph /  20.9km/h 47% 0in /  0.0mm
10:14 77.7 °F /  25.4 °C 55.9 °F /  13.3 °C 29.8in /  1009.8hPa ONO 8.1mph /  13km/h 13mph /  20.9km/h 47% 0in /  0.0mm
10:19 78.1 °F /  25.6 °C 56.3 °F /  13.5 °C 29.8in /  1009.8hPa OSO 7mph /  11.3km/h 12mph /  19.3km/h 47.1% 0in /  0.0mm
10:24 78.3 °F /  25.7 °C 55.8 °F /  13.2 °C 29.8in /  1009.8hPa OSO 6.2mph /  10km/h 12mph /  19.3km/h 46% 0in /  0.0mm
10:29 78.4 °F /  25.8 °C 55.9 °F /  13.3 °C 29.8in /  1009.8hPa Oeste 6.2mph /  10km/h 12mph /  19.3km/h 45.9% 0in /  0.0mm
10:34 78.8 °F /  26 °C 55.9 °F /  13.3 °C 29.8in /  1009.8hPa SO 6.2mph /  10km/h 10.7mph /  17.2km/h 45.4% 0in /  0.0mm
10:39 79 °F /  26.1 °C 55.8 °F /  13.2 °C 29.8in /  1009.8hPa OSO 5.4mph /  8.7km/h 12.3mph /  19.8km/h 45% 0in /  0.0mm
10:44 78.6 °F /  25.9 °C 55.6 °F /  13.1 °C 29.8in /  1009.8hPa OSO 4.7mph /  7.6km/h 12.7mph /  20.4km/h 45% 0in /  0.0mm
10:49 78.4 °F /  25.8 °C 55.6 °F /  13.1 °C 29.8in /  1009.8hPa OSO 6.2mph /  10km/h 13.5mph /  21.7km/h 45.5% 0in /  0.0mm
10:54 78.6 °F /  25.9 °C 55.6 °F /  13.1 °C 29.8in /  1009.8hPa Oeste 7.4mph /  11.9km/h 14mph /  22.5km/h 45.1% 0in /  0.0mm
10:59 78.8 °F /  26 °C 55.8 °F /  13.2 °C 29.8in /  1009.6hPa OSO 6.4mph /  10.3km/h 14mph /  22.5km/h 45% 0in /  0.0mm
11:04 79 °F /  26.1 °C 55.8 °F /  13.2 °C 29.8in /  1009.6hPa SSO 5.9mph /  9.5km/h 10.7mph /  17.2km/h 44.9% 0in /  0.0mm
11:09 79.2 °F /  26.2 °C 55.6 °F /  13.1 °C 29.8in /  1009.6hPa SO 5.5mph /  8.8km/h 11mph /  17.7km/h 44.4% 0in /  0.0mm
11:14 79.3 °F /  26.3 °C 55.6 °F /  13.1 °C 29.8in /  1009.6hPa OSO 5.2mph /  8.4km/h 11mph /  17.7km/h 44% 0in /  0.0mm
11:19 79.3 °F /  26.3 °C 55.4 °F /  13 °C 29.8in /  1009.6hPa NO 5.2mph /  8.4km/h 10mph /  16.1km/h 43.7% 0in /  0.0mm
11:24 79.7 °F /  26.5 °C 55.6 °F /  13.1 °C 29.8in /  1009.6hPa SE 5.2mph /  8.4km/h 10.4mph /  16.7km/h 43.6% 0in /  0.0mm
11:29 80.1 °F /  26.7 °C 55.6 °F /  13.1 °C 29.8in /  1009.4hPa OSO 4.7mph /  7.5km/h 10mph /  16.1km/h 43% 0in /  0.0mm
11:34 80.2 °F /  26.8 °C 55.8 °F /  13.2 °C 29.8in /  1009.4hPa ONO 4.3mph /  6.9km/h 9mph /  14.5km/h 43% 0in /  0.0mm
11:39 80.4 °F /  26.9 °C 55.4 °F /  13 °C 29.8in /  1009.4hPa ONO 3.9mph /  6.3km/h 7.4mph /  11.9km/h 42.1% 0in /  0.0mm
11:44 80.8 °F /  27.1 °C 55.4 °F /  13 °C 29.8in /  1009.4hPa Oeste 3.6mph /  5.8km/h 9.2mph /  14.8km/h 41.8% 0in /  0.0mm
11:49 81 °F /  27.2 °C 55 °F /  12.8 °C 29.8in /  1009.4hPa OSO 3.9mph /  6.2km/h 9.2mph /  14.8km/h 41.2% 0in /  0.0mm
11:54 81.1 °F /  27.3 °C 55.4 °F /  13 °C 29.8in /  1009.4hPa SO 4mph /  6.4km/h 6.9mph /  11.1km/h 41.4% 0in /  0.0mm
11:59 81.3 °F /  27.4 °C 55.6 °F /  13.1 °C 29.8in /  1009.4hPa ONO 3.8mph /  6.1km/h 7.4mph /  11.9km/h 41.2% 0in /  0.0mm
12:04 81.9 °F /  27.7 °C 55.4 °F /  13 °C 29.8in /  1009.4hPa NO 3.6mph /  5.8km/h 8.7mph /  14km/h 40.5% 0in /  0.0mm
12:09 81.9 °F /  27.7 °C 55 °F /  12.8 °C 29.8in /  1009.4hPa OSO 3.8mph /  6.1km/h 9.7mph /  15.6km/h 40% 0in /  0.0mm
12:14 81.7 °F /  27.6 °C 55.6 °F /  13.1 °C 29.8in /  1009.4hPa North 4mph /  6.5km/h 10mph /  16.1km/h 40.9% 0in /  0.0mm
12:19 82 °F /  27.8 °C 55.9 °F /  13.3 °C 29.8in /  1009.4hPa NNE 3.5mph /  5.6km/h 6mph /  9.7km/h 40.7% 0in /  0.0mm
12:24 82.6 °F /  28.1 °C 55.9 °F /  13.3 °C 29.8in /  1009.4hPa North 3.1mph /  5km/h 7.6mph /  12.2km/h 40% 0in /  0.0mm
12:29 82.8 °F /  28.2 °C 55.6 °F /  13.1 °C 29.8in /  1009.3hPa Oeste 3.7mph /  5.9km/h 9.2mph /  14.8km/h 39.3% 0in /  0.0mm
12:34 82.6 °F /  28.1 °C 55.6 °F /  13.1 °C 29.8in /  1009.3hPa ONO 4mph /  6.5km/h 9mph /  14.5km/h 39.7% 0in /  0.0mm
12:39 82.6 °F /  28.1 °C 55.6 °F /  13.1 °C 29.8in /  1009.3hPa NO 4.2mph /  6.8km/h 8mph /  12.9km/h 39.8% 0in /  0.0mm
12:44 82.8 °F /  28.2 °C 55.4 °F /  13 °C 29.8in /  1009.2hPa SSO 4.3mph /  6.9km/h 6.2mph /  10km/h 39.2% 0in /  0.0mm
12:49 82.9 °F /  28.3 °C 55.8 °F /  13.2 °C 29.8in /  1009.2hPa ESE 3.9mph /  6.3km/h 8.1mph /  13km/h 39.5% 0in /  0.0mm
12:54 83.3 °F /  28.5 °C 55.9 °F /  13.3 °C 29.8in /  1009.2hPa Este 3.6mph /  5.8km/h 8.5mph /  13.7km/h 39.2% 0in /  0.0mm
12:59 83.5 °F /  28.6 °C 56.5 °F /  13.6 °C 29.8in /  1009.0hPa ENE 4mph /  6.5km/h 5.9mph /  9.5km/h 39.8% 0in /  0.0mm
13:04 84 °F /  28.9 °C 56.1 °F /  13.4 °C 29.8in /  1009.0hPa ENE 4.3mph /  6.9km/h 6mph /  9.7km/h 38.6% 0in /  0.0mm
13:09 84.6 °F /  29.2 °C 56.1 °F /  13.4 °C 29.8in /  1009.0hPa ENE 3.4mph /  5.5km/h 6.9mph /  11.1km/h 38% 0in /  0.0mm
13:14 84 °F /  28.9 °C 56.3 °F /  13.5 °C 29.8in /  1008.9hPa NE 2.9mph /  4.7km/h 5.9mph /  9.5km/h 38.9% 0in /  0.0mm
13:19 84.4 °F /  29.1 °C 56.7 °F /  13.7 °C 29.8in /  1008.9hPa Este 3.3mph /  5.3km/h 6.4mph /  10.3km/h 39% 0in /  0.0mm
13:24 84.7 °F /  29.3 °C 55.9 °F /  13.3 °C 29.8in /  1008.9hPa Sur 3.6mph /  5.8km/h 8.1mph /  13km/h 37.6% 0in /  0.0mm
13:29 84.7 °F /  29.3 °C 55.8 °F /  13.2 °C 29.8in /  1008.8hPa SO 3.9mph /  6.2km/h 8mph /  12.9km/h 37.1% 0in /  0.0mm
13:34 84.7 °F /  29.3 °C 55.8 °F /  13.2 °C 29.8in /  1008.8hPa OSO 4mph /  6.5km/h 7.4mph /  11.9km/h 37.2% 0in /  0.0mm
13:39 84.7 °F /  29.3 °C 55.6 °F /  13.1 °C 29.8in /  1008.8hPa SO 4mph /  6.5km/h 8.1mph /  13km/h 37% 0in /  0.0mm
13:44 84.9 °F /  29.4 °C 55.8 °F /  13.2 °C 29.8in /  1008.7hPa ONO 4mph /  6.4km/h 7.4mph /  11.9km/h 37% 0in /  0.0mm
13:49 85.3 °F /  29.6 °C 56.1 °F /  13.4 °C 29.8in /  1008.7hPa Sur 3.1mph /  5km/h 7.4mph /  11.9km/h 37% 0in /  0.0mm
13:54 85.5 °F /  29.7 °C 56.1 °F /  13.4 °C 29.8in /  1008.7hPa Oeste 2.4mph /  3.9km/h 7mph /  11.3km/h 37% 0in /  0.0mm
13:59 85.6 °F /  29.8 °C 56.3 °F /  13.5 °C 29.8in /  1008.4hPa North 2.8mph /  4.5km/h 7mph /  11.3km/h 36.9% 0in /  0.0mm
14:04 85.6 °F /  29.8 °C 56.1 °F /  13.4 °C 29.8in /  1008.4hPa SE 3.1mph /  5km/h 8.5mph /  13.7km/h 36.5% 0in /  0.0mm
14:09 85.6 °F /  29.8 °C 56.5 °F /  13.6 °C 29.8in /  1008.4hPa ENE 3.6mph /  5.8km/h 7.4mph /  11.9km/h 37.1% 0in /  0.0mm
14:14 86 °F /  30 °C 56.3 °F /  13.5 °C 29.8in /  1008.3hPa NNO 4mph /  6.5km/h 9.7mph /  15.6km/h 36.4% 0in /  0.0mm
14:19 85.8 °F /  29.9 °C 55.8 °F /  13.2 °C 29.8in /  1008.3hPa SE 4.7mph /  7.6km/h 10mph /  16.1km/h 36% 0in /  0.0mm
14:24 86.2 °F /  30.1 °C 56.1 °F /  13.4 °C 29.8in /  1008.3hPa SSE 5.2mph /  8.4km/h 9mph /  14.5km/h 36% 0in /  0.0mm
14:29 86.5 °F /  30.3 °C 55.8 °F /  13.2 °C 29.8in /  1008.2hPa SSE 4.5mph /  7.2km/h 9.2mph /  14.8km/h 35.3% 0in /  0.0mm
14:34 86.4 °F /  30.2 °C 55.4 °F /  13 °C 29.8in /  1008.2hPa SO 4mph /  6.4km/h 8.1mph /  13km/h 35% 0in /  0.0mm
14:39 86.4 °F /  30.2 °C 58.5 °F /  14.7 °C 29.8in /  1008.2hPa ESE 4.8mph /  7.7km/h 17.3mph /  27.8km/h 38.9% 0in /  0.0mm
14:44 86.4 °F /  30.2 °C 59 °F /  15 °C 29.8in /  1007.9hPa Este 5.2mph /  8.4km/h 17mph /  27.4km/h 39.7% 0in /  0.0mm
14:49 86 °F /  30 °C 59 °F /  15 °C 29.8in /  1007.9hPa ESE 7.9mph /  12.7km/h 16.1mph /  25.9km/h 40.1% 0in /  0.0mm
14:54 86.4 °F /  30.2 °C 59.2 °F /  15.1 °C 29.8in /  1007.9hPa Este 9.7mph /  15.6km/h 15mph /  24.1km/h 40% 0in /  0.0mm
14:59 86.5 °F /  30.3 °C 59 °F /  15 °C 29.8in /  1007.8hPa ESE 8.4mph /  13.5km/h 14mph /  22.5km/h 39.3% 0in /  0.0mm
15:04 86.7 °F /  30.4 °C 58.5 °F /  14.7 °C 29.8in /  1007.8hPa SE 7.6mph /  12.2km/h 15.9mph /  25.6km/h 38.7% 0in /  0.0mm
15:09 86.5 °F /  30.3 °C 58.5 °F /  14.7 °C 29.8in /  1007.8hPa ESE 9.4mph /  15.1km/h 18.4mph /  29.6km/h 38.8% 0in /  0.0mm
15:14 86.9 °F /  30.5 °C 58.5 °F /  14.7 °C 29.8in /  1007.8hPa ESE 10.7mph /  17.2km/h 19.2mph /  30.9km/h 38.4% 0in /  0.0mm
15:19 86.5 °F /  30.3 °C 57.9 °F /  14.4 °C 29.8in /  1007.8hPa ESE 10.4mph /  16.7km/h 20mph /  32.2km/h 38% 0in /  0.0mm
15:24 86.4 °F /  30.2 °C 57.9 °F /  14.4 °C 29.8in /  1007.8hPa ESE 10.2mph /  16.4km/h 15mph /  24.1km/h 38.2% 0in /  0.0mm
15:29 86.4 °F /  30.2 °C 57.7 °F /  14.3 °C 29.8in /  1007.7hPa SSE 10.2mph /  16.4km/h 19mph /  30.6km/h 38% 0in /  0.0mm
15:34 86.4 °F /  30.2 °C 57.7 °F /  14.3 °C 29.8in /  1007.7hPa SE 10.2mph /  16.4km/h 16.3mph /  26.2km/h 38% 0in /  0.0mm
15:39 86.4 °F /  30.2 °C 57.6 °F /  14.2 °C 29.8in /  1007.7hPa SSE 10.5mph /  16.9km/h 17.3mph /  27.8km/h 37.7% 0in /  0.0mm
15:44 86.4 °F /  30.2 °C 57.7 °F /  14.3 °C 29.8in /  1007.4hPa SE 10.7mph /  17.2km/h 18.4mph /  29.6km/h 38% 0in /  0.0mm
15:49 86.2 °F /  30.1 °C 57.7 °F /  14.3 °C 29.8in /  1007.4hPa SE 11mph /  17.7km/h 18mph /  29km/h 38.1% 0in /  0.0mm
15:54 86.4 °F /  30.2 °C 57.9 °F /  14.4 °C 29.8in /  1007.4hPa ESE 11.2mph /  18km/h 20.1mph /  32.3km/h 38.3% 0in /  0.0mm
15:59 85.8 °F /  29.9 °C 57.7 °F /  14.3 °C 29.7in /  1007.3hPa ESE 12.1mph /  19.4km/h 21mph /  33.8km/h 38.5% 0in /  0.0mm
16:04 86.2 °F /  30.1 °C 58.3 °F /  14.6 °C 29.7in /  1007.3hPa ESE 12.5mph /  20.1km/h 21mph /  33.8km/h 39% 0in /  0.0mm
16:09 86.5 °F /  30.3 °C 58.1 °F /  14.5 °C 29.7in /  1007.3hPa SE 11.4mph /  18.3km/h 18mph /  29km/h 38.2% 0in /  0.0mm
16:14 86.2 °F /  30.1 °C 58.1 °F /  14.5 °C 29.7in /  1007.2hPa SE 10.7mph /  17.2km/h 18.4mph /  29.6km/h 38.7% 0in /  0.0mm
16:19 86.4 °F /  30.2 °C 58.5 °F /  14.7 °C 29.7in /  1007.2hPa ESE 10.7mph /  17.2km/h 18.1mph /  29.1km/h 39% 0in /  0.0mm
16:24 86.4 °F /  30.2 °C 58.5 °F /  14.7 °C 29.7in /  1007.2hPa ESE 10.7mph /  17.2km/h 21.9mph /  35.2km/h 39% 0in /  0.0mm
16:29 85.8 °F /  29.9 °C 58.3 °F /  14.6 °C 29.7in /  1007.1hPa ESE 11.7mph /  18.8km/h 22mph /  35.4km/h 39.6% 0in /  0.0mm
16:34 85.8 °F /  29.9 °C 58.5 °F /  14.7 °C 29.7in /  1007.1hPa ESE 12.3mph /  19.8km/h 22.3mph /  35.9km/h 39.8% 0in /  0.0mm
16:39 86 °F /  30 °C 58.5 °F /  14.7 °C 29.7in /  1007.1hPa ESE 11.8mph /  19km/h 20.8mph /  33.5km/h 39.5% 0in /  0.0mm
16:44 85.8 °F /  29.9 °C 58.6 °F /  14.8 °C 29.7in /  1007.1hPa ESE 11.4mph /  18.3km/h 14.7mph /  23.7km/h 39.8% 0in /  0.0mm
16:49 86 °F /  30 °C 58.1 °F /  14.5 °C 29.7in /  1007.1hPa ESE 11mph /  17.7km/h 19mph /  30.6km/h 39% 0in /  0.0mm
16:54 85.8 °F /  29.9 °C 58.1 °F /  14.5 °C 29.7in /  1007.1hPa ESE 10.7mph /  17.2km/h 19.6mph /  31.5km/h 39% 0in /  0.0mm
16:59 85.8 °F /  29.9 °C 57.9 °F /  14.4 °C 29.7in /  1007.1hPa ESE 10.7mph /  17.2km/h 20mph /  32.2km/h 39% 0in /  0.0mm
17:04 86 °F /  30 °C 57.9 °F /  14.4 °C 29.7in /  1007.1hPa ESE 10.7mph /  17.2km/h 20mph /  32.2km/h 38.7% 0in /  0.0mm
17:09 86.2 °F /  30.1 °C 57.9 °F /  14.4 °C 29.7in /  1007.1hPa SE 10.4mph /  16.7km/h 17mph /  27.4km/h 38.5% 0in /  0.0mm
17:14 86.5 °F /  30.3 °C 57.9 °F /  14.4 °C 29.7in /  1007.0hPa SE 10.2mph /  16.4km/h 15mph /  24.1km/h 37.9% 0in /  0.0mm
17:19 86.5 °F /  30.3 °C 57.9 °F /  14.4 °C 29.7in /  1007.0hPa ESE 9.4mph /  15.1km/h 19.6mph /  31.5km/h 38% 0in /  0.0mm
17:24 86.4 °F /  30.2 °C 57.7 °F /  14.3 °C 29.7in /  1007.0hPa ESE 8.7mph /  14km/h 18.4mph /  29.6km/h 38% 0in /  0.0mm
17:29 86.4 °F /  30.2 °C 57.9 °F /  14.4 °C 29.7in /  1006.8hPa SE 10.3mph /  16.5km/h 17.5mph /  28.2km/h 38.3% 0in /  0.0mm
17:34 86 °F /  30 °C 58.1 °F /  14.5 °C 29.7in /  1006.8hPa ESE 11.4mph /  18.4km/h 19.7mph /  31.7km/h 39.1% 0in /  0.0mm
17:39 85.8 °F /  29.9 °C 58.6 °F /  14.8 °C 29.7in /  1006.8hPa ESE 11.7mph /  18.8km/h 20mph /  32.2km/h 39.8% 0in /  0.0mm
17:44 86.2 °F /  30.1 °C 58.6 °F /  14.8 °C 29.7in /  1006.8hPa SE 11.8mph /  19km/h 17mph /  27.4km/h 39.5% 0in /  0.0mm
17:49 86.7 °F /  30.4 °C 58.8 °F /  14.9 °C 29.7in /  1006.8hPa ESE 10.2mph /  16.4km/h 15mph /  24.1km/h 39% 0in /  0.0mm
17:54 86.7 °F /  30.4 °C 58.8 °F /  14.9 °C 29.7in /  1006.8hPa ESE 9.2mph /  14.8km/h 17.5mph /  28.2km/h 39% 0in /  0.0mm
17:59 86.5 °F /  30.3 °C 58.6 °F /  14.8 °C 29.7in /  1006.8hPa SE 9.7mph /  15.6km/h 18.4mph /  29.6km/h 39% 0in /  0.0mm
18:04 86.5 °F /  30.3 °C 58.5 °F /  14.7 °C 29.7in /  1006.8hPa SE 10mph /  16.1km/h 18mph /  29km/h 38.6% 0in /  0.0mm
18:09 86.9 °F /  30.5 °C 58.3 °F /  14.6 °C 29.7in /  1006.8hPa ESE 9.2mph /  14.8km/h 16.1mph /  25.9km/h 38.2% 0in /  0.0mm
18:14 87.1 °F /  30.6 °C 58.3 °F /  14.6 °C 29.7in /  1006.7hPa SE 8.7mph /  14km/h 19mph /  30.6km/h 38% 0in /  0.0mm
18:19 87.1 °F /  30.6 °C 58.3 °F /  14.6 °C 29.7in /  1006.7hPa SE 9.9mph /  15.9km/h 16.3mph /  26.2km/h 38% 0in /  0.0mm
18:24 86.7 °F /  30.4 °C 58.3 °F /  14.6 °C 29.7in /  1006.7hPa SE 10.7mph /  17.2km/h 16.1mph /  25.9km/h 38.3% 0in /  0.0mm
18:29 86.7 °F /  30.4 °C 58.3 °F /  14.6 °C 29.7in /  1006.6hPa SE 9.4mph /  15.2km/h 16.1mph /  25.9km/h 38.1% 0in /  0.0mm
18:34 87.1 °F /  30.6 °C 58.3 °F /  14.6 °C 29.7in /  1006.6hPa SE 8.7mph /  14km/h 16.1mph /  25.9km/h 37.9% 0in /  0.0mm
18:39 87.1 °F /  30.6 °C 58.3 °F /  14.6 °C 29.7in /  1006.7hPa SE 8.7mph /  14km/h 14.5mph /  23.3km/h 37.8% 0in /  0.0mm
18:44 86.7 °F /  30.4 °C 58.1 °F /  14.5 °C 29.7in /  1006.7hPa SE 8.7mph /  14km/h 15mph /  24.1km/h 37.9% 0in /  0.0mm
18:49 86.9 °F /  30.5 °C 57.9 °F /  14.4 °C 29.7in /  1006.7hPa SE 9mph /  14.5km/h 16.1mph /  25.9km/h 37.5% 0in /  0.0mm
18:54 86.7 °F /  30.4 °C 57.7 °F /  14.3 °C 29.7in /  1006.7hPa SE 9.2mph /  14.8km/h 16mph /  25.7km/h 37.5% 0in /  0.0mm
18:59 86.7 °F /  30.4 °C 58.1 °F /  14.5 °C 29.7in /  1006.5hPa ESE 8.5mph /  13.7km/h 14mph /  22.5km/h 38% 0in /  0.0mm
19:04 86.7 °F /  30.4 °C 58.1 °F /  14.5 °C 29.7in /  1006.5hPa SE 8.1mph /  13km/h 15mph /  24.1km/h 38% 0in /  0.0mm
19:09 86.4 °F /  30.2 °C 57.9 °F /  14.4 °C 29.7in /  1006.6hPa ESE 8.8mph /  14.1km/h 15mph /  24.1km/h 38% 0in /  0.0mm
19:14 86.4 °F /  30.2 °C 57.7 °F /  14.3 °C 29.7in /  1006.6hPa ESE 9.2mph /  14.8km/h 11.5mph /  18.5km/h 38% 0in /  0.0mm
19:19 86.4 °F /  30.2 °C 57.7 °F /  14.3 °C 29.7in /  1006.6hPa ESE 8.6mph /  13.8km/h 17.3mph /  27.8km/h 38% 0in /  0.0mm
19:24 86 °F /  30 °C 57.7 °F /  14.3 °C 29.7in /  1006.6hPa ESE 8.1mph /  13km/h 17mph /  27.4km/h 38.5% 0in /  0.0mm
19:29 85.6 °F /  29.8 °C 57.7 °F /  14.3 °C 29.7in /  1006.6hPa ESE 9.9mph /  15.9km/h 18.4mph /  29.6km/h 39% 0in /  0.0mm
19:34 85.5 °F /  29.7 °C 57.7 °F /  14.3 °C 29.7in /  1006.6hPa ESE 11.2mph /  18km/h 18mph /  29km/h 39% 0in /  0.0mm
19:39 85.5 °F /  29.7 °C 57.7 °F /  14.3 °C 29.7in /  1006.6hPa ESE 10.4mph /  16.8km/h 16.3mph /  26.2km/h 39% 0in /  0.0mm
19:44 85.5 °F /  29.7 °C 57.7 °F /  14.3 °C 29.7in /  1006.6hPa SE 10mph /  16.1km/h 16.3mph /  26.2km/h 39% 0in /  0.0mm
19:49 85.3 °F /  29.6 °C 57.6 °F /  14.2 °C 29.7in /  1006.6hPa ESE 9.8mph /  15.8km/h 16.1mph /  25.9km/h 39% 0in /  0.0mm
19:54 85.1 °F /  29.5 °C 57.4 °F /  14.1 °C 29.7in /  1006.7hPa ESE 9.7mph /  15.6km/h 15.2mph /  24.5km/h 39% 0in /  0.0mm
19:59 85.1 °F /  29.5 °C 57.4 °F /  14.1 °C 29.7in /  1006.7hPa ESE 8.9mph /  14.4km/h 12.7mph /  20.4km/h 39% 0in /  0.0mm
20:04 85.3 °F /  29.6 °C 57.6 °F /  14.2 °C 29.7in /  1006.7hPa ESE 8.5mph /  13.7km/h 13mph /  20.9km/h 39% 0in /  0.0mm
20:09 85.3 °F /  29.6 °C 57.6 °F /  14.2 °C 29.7in /  1007.0hPa ESE 7.3mph /  11.8km/h 12mph /  19.3km/h 39% 0in /  0.0mm
20:14 85.3 °F /  29.6 °C 57.6 °F /  14.2 °C 29.7in /  1007.0hPa ESE 6.4mph /  10.3km/h 12mph /  19.3km/h 39% 0in /  0.0mm
20:19 85.3 °F /  29.6 °C 57.4 °F /  14.1 °C 29.7in /  1007.0hPa SE 6.3mph /  10.1km/h 11mph /  17.7km/h 38.9% 0in /  0.0mm
20:24 85.1 °F /  29.5 °C 57.4 °F /  14.1 °C 29.7in /  1007.0hPa SE 6.2mph /  10km/h 11mph /  17.7km/h 38.9% 0in /  0.0mm
20:29 85.1 °F /  29.5 °C 57 °F /  13.9 °C 29.7in /  1007.0hPa ESE 6mph /  9.7km/h 10.2mph /  16.4km/h 38.5% 0in /  0.0mm
20:34 84.9 °F /  29.4 °C 57 °F /  13.9 °C 29.7in /  1007.0hPa SE 5.9mph /  9.5km/h 10.7mph /  17.2km/h 38.9% 0in /  0.0mm
20:39 84.7 °F /  29.3 °C 57 °F /  13.9 °C 29.7in /  1007.2hPa ESE 6.2mph /  10km/h 11mph /  17.7km/h 39% 0in /  0.0mm
20:44 84.6 °F /  29.2 °C 57.2 °F /  14 °C 29.7in /  1007.2hPa ESE 6.4mph /  10.3km/h 9.2mph /  14.8km/h 39.3% 0in /  0.0mm
20:49 84.4 °F /  29.1 °C 57.4 °F /  14.1 °C 29.7in /  1007.2hPa ESE 5.8mph /  9.4km/h 9.7mph /  15.6km/h 40% 0in /  0.0mm
20:54 84 °F /  28.9 °C 57 °F /  13.9 °C 29.8in /  1007.4hPa Este 5.4mph /  8.7km/h 9.2mph /  14.8km/h 40% 0in /  0.0mm
20:59 83.7 °F /  28.7 °C 57.2 °F /  14 °C 29.8in /  1007.4hPa ESE 5.4mph /  8.7km/h 9mph /  14.5km/h 40.5% 0in /  0.0mm
21:04 83.7 °F /  28.7 °C 57.6 °F /  14.2 °C 29.8in /  1007.4hPa ESE 5.4mph /  8.7km/h 8mph /  12.9km/h 41% 0in /  0.0mm
21:09 83.7 °F /  28.7 °C 57.4 °F /  14.1 °C 29.8in /  1007.5hPa ESE 4.8mph /  7.7km/h 6.9mph /  11.1km/h 41% 0in /  0.0mm
21:14 83.5 °F /  28.6 °C 57.2 °F /  14 °C 29.8in /  1007.5hPa ESE 4.3mph /  6.9km/h 7mph /  11.3km/h 41% 0in /  0.0mm
21:19 83.1 °F /  28.4 °C 57.2 °F /  14 °C 29.8in /  1007.5hPa ESE 4.1mph /  6.6km/h 6.9mph /  11.1km/h 41.4% 0in /  0.0mm
21:24 82.9 °F /  28.3 °C 57.4 °F /  14.1 °C 29.8in /  1007.7hPa Este 4mph /  6.4km/h 5.2mph /  8.4km/h 41.9% 0in /  0.0mm
21:29 82.8 °F /  28.2 °C 57.2 °F /  14 °C 29.8in /  1007.7hPa Este 3.8mph /  6.1km/h 5.9mph /  9.5km/h 41.8% 0in /  0.0mm
21:34 82.6 °F /  28.1 °C 57.2 °F /  14 °C 29.8in /  1007.7hPa ESE 3.6mph /  5.8km/h 6.2mph /  10km/h 42% 0in /  0.0mm
21:39 82.4 °F /  28 °C 57.6 °F /  14.2 °C 29.8in /  1007.9hPa ESE 3.6mph /  5.8km/h 6mph /  9.7km/h 42.8% 0in /  0.0mm
21:44 82 °F /  27.8 °C 57.6 °F /  14.2 °C 29.8in /  1007.9hPa ESE 3.6mph /  5.8km/h 6.9mph /  11.1km/h 43.3% 0in /  0.0mm
21:49 82 °F /  27.8 °C 57.9 °F /  14.4 °C 29.8in /  1007.9hPa SE 3.9mph /  6.2km/h 7mph /  11.3km/h 44% 0in /  0.0mm
21:54 81.9 °F /  27.7 °C 57.7 °F /  14.3 °C 29.8in /  1008.1hPa SE 4mph /  6.5km/h 6mph /  9.7km/h 44% 0in /  0.0mm
21:59 81.9 °F /  27.7 °C 57.7 °F /  14.3 °C 29.8in /  1008.1hPa ESE 3.4mph /  5.5km/h 4.6mph /  7.4km/h 43.9% 0in /  0.0mm
22:04 81.9 °F /  27.7 °C 57.7 °F /  14.3 °C 29.8in /  1008.1hPa ESE 3.1mph /  5km/h 5mph /  8km/h 43.8% 0in /  0.0mm
22:09 82 °F /  27.8 °C 57.2 °F /  14 °C 29.8in /  1008.4hPa SE 3mph /  4.8km/h 5.8mph /  9.3km/h 43% 0in /  0.0mm
22:14 82 °F /  27.8 °C 57.4 °F /  14.1 °C 29.8in /  1008.4hPa SE 2.9mph /  4.7km/h 6mph /  9.7km/h 43% 0in /  0.0mm
22:19 82 °F /  27.8 °C 56.5 °F /  13.6 °C 29.8in /  1008.4hPa SSO 2.9mph /  4.6km/h 5.9mph /  9.5km/h 41.7% 0in /  0.0mm
22:24 82 °F /  27.8 °C 55.9 °F /  13.3 °C 29.8in /  1008.6hPa SO 2.9mph /  4.7km/h 8.1mph /  13km/h 40.8% 0in /  0.0mm
22:29 82 °F /  27.8 °C 55.4 °F /  13 °C 29.8in /  1008.6hPa SSO 3.5mph /  5.7km/h 6.9mph /  11.1km/h 40% 0in /  0.0mm
22:34 82 °F /  27.8 °C 55.4 °F /  13 °C 29.8in /  1008.6hPa Sur 4mph /  6.4km/h 6.2mph /  10km/h 40.1% 0in /  0.0mm
22:39 82 °F /  27.8 °C 55.8 °F /  13.2 °C 29.8in /  1008.9hPa Sur 3.8mph /  6.1km/h 5.8mph /  9.3km/h 40.7% 0in /  0.0mm
22:44 81.9 °F /  27.7 °C 55.8 °F /  13.2 °C 29.8in /  1008.9hPa SO 3.6mph /  5.8km/h 6.9mph /  11.1km/h 40.9% 0in /  0.0mm
22:49 81.7 °F /  27.6 °C 55.8 °F /  13.2 °C 29.8in /  1008.9hPa SO 3.9mph /  6.2km/h 7mph /  11.3km/h 41% 0in /  0.0mm
22:54 81.3 °F /  27.4 °C 55.4 °F /  13 °C 29.8in /  1009.1hPa SO 4mph /  6.5km/h 8.1mph /  13km/h 41% 0in /  0.0mm
22:59 81.1 °F /  27.3 °C 55.4 °F /  13 °C 29.8in /  1009.1hPa SO 4.7mph /  7.6km/h 8.1mph /  13km/h 41.4% 0in /  0.0mm
23:04 80.8 °F /  27.1 °C 55.6 °F /  13.1 °C 29.8in /  1009.1hPa SO 5.2mph /  8.4km/h 8.1mph /  13km/h 42% 0in /  0.0mm
23:09 80.4 °F /  26.9 °C 55.6 °F /  13.1 °C 29.8in /  1009.3hPa SSO 4.7mph /  7.5km/h 6.9mph /  11.1km/h 42.4% 0in /  0.0mm
23:14 80.2 °F /  26.8 °C 55.8 °F /  13.2 °C 29.8in /  1009.3hPa SO 4.3mph /  6.9km/h 5.8mph /  9.3km/h 43% 0in /  0.0mm
23:19 80.1 °F /  26.7 °C 55.8 °F /  13.2 °C 29.8in /  1009.3hPa SO 3.5mph /  5.7km/h 6mph /  9.7km/h 43.4% 0in /  0.0mm
23:24 79.9 °F /  26.6 °C 55.9 °F /  13.3 °C 29.8in /  1009.3hPa SO 3.1mph /  5km/h 6.9mph /  11.1km/h 44% 0in /  0.0mm
23:29 79.5 °F /  26.4 °C 55.9 °F /  13.3 °C 29.8in /  1009.3hPa Oeste 3.7mph /  5.9km/h 10.4mph /  16.7km/h 44.4% 0in /  0.0mm
23:34 79.2 °F /  26.2 °C 56.8 °F /  13.8 °C 29.8in /  1009.3hPa ONO 4mph /  6.4km/h 11.5mph /  18.5km/h 46.5% 0in /  0.0mm
23:39 79 °F /  26.1 °C 57.6 °F /  14.2 °C 29.8in /  1009.7hPa Oeste 5.1mph /  8.2km/h 12mph /  19.3km/h 48.1% 0in /  0.0mm
23:44 78.6 °F /  25.9 °C 58.5 °F /  14.7 °C 29.8in /  1009.7hPa NO 5.9mph /  9.5km/h 6.9mph /  11.1km/h 50% 0in /  0.0mm
23:49 78.6 °F /  25.9 °C 59 °F /  15 °C 29.8in /  1009.7hPa ONO 4.7mph /  7.6km/h 7mph /  11.3km/h 51% 0in /  0.0mm
23:54 78.4 °F /  25.8 °C 58.6 °F /  14.8 °C 29.8in /  1009.9hPa ONO 4mph /  6.4km/h 6.9mph /  11.1km/h 50.8% 0in /  0.0mm
23:59 78.4 °F /  25.8 °C 56.8 °F /  13.8 °C 29.8in /  1009.9hPa ONO 3.7mph /  6km/h 10.4mph /  16.7km/h 47.5% 0in /  0.0mm
Murcia-Puente Tocinos, España
Compliments of Weather Underground - 3 mb

La estación de MeteoMurcia.com, publica sus datos en los siguientes proyectos:

Weather Underground PWS IMURCIAP2 Meteoclimatic www.awekas.at

W3Counter
Web Analytics